createdAt,value
2022-12-13T00:02:21.942Z,8.07
2022-12-13T00:05:07.569Z,8.18
2022-12-13T00:07:52.769Z,8.82
2022-12-13T00:10:37.519Z,9.53
2022-12-13T00:13:22.736Z,9.07
2022-12-13T00:16:12.114Z,9.60
2022-12-13T00:18:58.281Z,8.95
2022-12-13T00:21:44.099Z,8.10
2022-12-13T00:24:29.271Z,8.03
2022-12-13T00:27:14.310Z,8.55
2022-12-13T00:29:59.437Z,8.13
2022-12-13T00:32:44.506Z,8.65
2022-12-13T00:35:29.463Z,7.63
2022-12-13T00:38:14.487Z,9.10
2022-12-13T00:41:00.106Z,8.00
2022-12-13T00:43:46.090Z,7.55
2022-12-13T00:46:31.630Z,8.45
2022-12-13T00:49:16.464Z,8.57
2022-12-13T00:52:01.526Z,8.67
2022-12-13T00:54:46.590Z,8.75
2022-12-13T00:57:31.464Z,8.90
2022-12-13T01:00:16.585Z,8.27
2022-12-13T01:03:20.167Z,8.63
2022-12-13T01:06:20.211Z,8.13
2022-12-13T01:09:07.653Z,10.60
2022-12-13T01:12:00.508Z,8.32
2022-12-13T01:14:45.780Z,8.32
2022-12-13T01:17:30.800Z,8.63
2022-12-13T01:20:16.013Z,7.30
2022-12-13T01:23:01.034Z,8.57
2022-12-13T01:25:46.063Z,9.43
2022-12-13T01:28:31.124Z,8.82
2022-12-13T01:31:19.370Z,8.50
2022-12-13T01:34:10.121Z,9.43
2022-12-13T01:36:58.537Z,8.73
2022-12-13T01:39:43.855Z,9.05
2022-12-13T01:42:29.599Z,8.93
2022-12-13T01:45:27.827Z,8.95
2022-12-13T01:48:16.432Z,8.90
2022-12-13T01:51:04.994Z,9.27
2022-12-13T01:53:51.027Z,8.45
2022-12-13T01:56:44.438Z,9.40
2022-12-13T01:59:33.529Z,8.20
2022-12-13T02:02:18.734Z,8.37
2022-12-13T02:05:33.474Z,8.35
2022-12-13T02:08:19.497Z,10.43
2022-12-13T02:11:06.463Z,8.68
2022-12-13T02:13:51.371Z,8.73
2022-12-13T02:17:20.649Z,8.57
2022-12-13T02:20:11.836Z,8.38
2022-12-13T02:23:35.462Z,7.88
2022-12-13T02:26:42.969Z,8.05
2022-12-13T02:29:44.532Z,8.77
2022-12-13T02:33:11.288Z,8.13
2022-12-13T02:36:13.254Z,6.03
2022-12-13T02:39:02.671Z,7.63
2022-12-13T02:41:50.628Z,6.13
2022-12-13T02:44:42.981Z,7.72
2022-12-13T02:47:30.542Z,8.03
2022-12-13T02:50:15.869Z,7.93
2022-12-13T02:53:01.497Z,7.85
2022-12-13T02:55:46.907Z,8.43
2022-12-13T02:58:39.486Z,8.20
2022-12-13T03:01:49.669Z,7.63
2022-12-13T03:05:09.577Z,9.10
2022-12-13T03:08:15.262Z,8.00
2022-12-13T03:11:07.933Z,8.90
2022-12-13T03:13:56.449Z,9.35
2022-12-13T03:16:44.189Z,7.73
2022-12-13T03:19:29.344Z,7.70
2022-12-13T03:22:14.089Z,7.75
2022-12-13T03:24:59.312Z,8.43
2022-12-13T03:27:44.455Z,9.25
2022-12-13T03:30:33.744Z,8.17
2022-12-13T03:33:18.940Z,8.23
2022-12-13T03:36:05.570Z,9.10
2022-12-13T03:38:53.341Z,8.80
2022-12-13T03:41:38.278Z,7.18
2022-12-13T03:44:23.350Z,6.07
2022-12-13T03:47:08.382Z,5.18
2022-12-13T03:49:54.135Z,4.55
2022-12-13T03:52:39.382Z,8.50
2022-12-13T03:55:24.496Z,6.50
2022-12-13T03:58:09.601Z,9.30
2022-12-13T04:00:57.876Z,5.28
2022-12-13T04:03:47.334Z,7.45
2022-12-13T04:06:33.196Z,6.15
2022-12-13T04:09:18.195Z,8.02
2022-12-13T04:12:22.556Z,8.10
2022-12-13T04:15:08.290Z,9.85
2022-12-13T04:17:53.264Z,7.97
2022-12-13T04:20:37.954Z,8.70
2022-12-13T04:23:23.218Z,3.13
2022-12-13T04:26:08.377Z,4.97
2022-12-13T04:28:54.801Z,7.72
2022-12-13T04:31:39.872Z,7.55
2022-12-13T04:34:26.468Z,6.78
2022-12-13T04:37:11.432Z,9.75
2022-12-13T04:40:00.480Z,2.23
2022-12-13T04:42:46.167Z,7.07
2022-12-13T04:45:31.033Z,8.63
2022-12-13T04:48:30.762Z,3.65
2022-12-13T04:51:16.823Z,6.63
2022-12-13T04:54:24.297Z,7.03
2022-12-13T04:57:10.218Z,9.15
2022-12-13T04:59:54.902Z,4.68
2022-12-13T05:02:43.475Z,9.25
2022-12-13T05:05:28.298Z,8.52
2022-12-13T05:08:13.444Z,4.67
2022-12-13T05:10:58.380Z,8.00
2022-12-13T05:13:43.491Z,5.30
2022-12-13T05:16:28.430Z,4.05
2022-12-13T05:19:13.435Z,6.65
2022-12-13T05:22:01.022Z,5.73
2022-12-13T05:24:47.084Z,4.40
2022-12-13T05:27:31.959Z,8.50
2022-12-13T05:30:17.647Z,6.78
2022-12-13T05:33:02.811Z,4.60
2022-12-13T05:35:48.166Z,7.17
2022-12-13T05:38:33.173Z,4.18
2022-12-13T05:41:21.865Z,4.18
2022-12-13T05:44:07.527Z,6.53
2022-12-13T05:46:52.688Z,8.43
2022-12-13T05:49:37.633Z,8.20
2022-12-13T05:52:30.342Z,5.22
2022-12-13T05:55:16.141Z,4.88
2022-12-13T05:58:02.546Z,3.92
2022-12-13T06:00:48.040Z,7.70
2022-12-13T06:03:33.292Z,3.00
2022-12-13T06:06:18.381Z,5.13
2022-12-13T06:09:03.796Z,6.15
2022-12-13T06:11:48.880Z,7.43
2022-12-13T06:14:33.986Z,7.30
2022-12-13T06:17:21.635Z,6.37
2022-12-13T06:20:24.492Z,2.67
2022-12-13T06:23:09.811Z,6.85
2022-12-13T06:25:54.707Z,4.78
2022-12-13T06:28:39.533Z,8.57
2022-12-13T06:31:24.593Z,3.77
2022-12-13T06:34:13.928Z,5.05
2022-12-13T06:37:00.727Z,3.10
2022-12-13T06:39:47.387Z,5.07
2022-12-13T06:42:32.426Z,4.40
2022-12-13T06:45:17.803Z,2.70
2022-12-13T06:48:02.845Z,5.68
2022-12-13T06:50:47.898Z,3.55
2022-12-13T06:53:38.838Z,3.60
2022-12-13T06:56:23.926Z,1.75
2022-12-13T06:59:09.085Z,4.50
2022-12-13T07:01:54.401Z,5.15
2022-12-13T07:04:48.500Z,3.40
2022-12-13T07:07:33.322Z,6.30
2022-12-13T07:10:22.187Z,5.72
2022-12-13T07:13:07.709Z,5.67
2022-12-13T07:15:52.888Z,6.72
2022-12-13T07:18:46.509Z,3.40
2022-12-13T07:21:31.894Z,8.05
2022-12-13T07:24:16.832Z,6.57
2022-12-13T07:27:02.786Z,6.43
2022-12-13T07:29:47.945Z,6.70
2022-12-13T07:32:32.773Z,7.32
2022-12-13T07:35:17.832Z,6.85
2022-12-13T07:38:03.286Z,7.60
2022-12-13T07:40:48.075Z,2.27
2022-12-13T07:43:33.853Z,8.70
2022-12-13T07:46:21.439Z,7.00
2022-12-13T07:49:17.473Z,1.80
2022-12-13T07:52:02.617Z,5.90
2022-12-13T07:54:47.754Z,2.10
2022-12-13T07:57:32.837Z,5.50
2022-12-13T08:00:18.527Z,6.03
2022-12-13T08:03:03.598Z,5.88
2022-12-13T08:05:48.331Z,7.45
2022-12-13T08:08:33.982Z,6.23
2022-12-13T08:11:18.820Z,5.75
2022-12-13T08:14:03.933Z,6.82
2022-12-13T08:16:48.963Z,6.10
2022-12-13T08:19:33.783Z,7.15
2022-12-13T08:22:24.295Z,6.00
2022-12-13T08:25:09.657Z,6.85
2022-12-13T08:27:54.497Z,6.70
2022-12-13T08:30:47.997Z,6.95
2022-12-13T08:33:34.829Z,7.53
2022-12-13T08:36:22.831Z,6.90
2022-12-13T08:39:07.856Z,6.47
2022-12-13T08:41:53.082Z,7.00
2022-12-13T08:44:37.923Z,5.57
2022-12-13T08:47:26.935Z,6.30
2022-12-13T08:50:12.174Z,6.37
2022-12-13T08:52:57.652Z,5.03
2022-12-13T08:55:42.635Z,7.03
2022-12-13T08:58:28.587Z,5.90
2022-12-13T09:01:13.786Z,6.63
2022-12-13T09:03:58.766Z,6.20
2022-12-13T09:06:44.059Z,6.65
2022-12-13T09:09:29.715Z,8.10
2022-12-13T09:12:29.876Z,6.00
2022-12-13T09:15:21.795Z,1.90
2022-12-13T09:18:07.919Z,6.33
2022-12-13T09:21:11.018Z,2.45
2022-12-13T09:24:02.024Z,1.75
2022-12-13T09:26:47.549Z,6.95
2022-12-13T09:29:34.029Z,9.38
2022-12-13T09:32:18.891Z,4.83
2022-12-13T09:35:04.433Z,5.32
2022-12-13T09:37:49.367Z,7.82
2022-12-13T09:40:38.145Z,7.10
2022-12-13T09:43:31.905Z,7.30
2022-12-13T09:46:26.963Z,4.37
2022-12-13T09:49:35.394Z,7.40
2022-12-13T09:52:23.477Z,7.07
2022-12-13T09:55:30.927Z,6.65
2022-12-13T09:58:25.561Z,5.43
2022-12-13T10:01:12.014Z,7.60
2022-12-13T10:03:59.871Z,6.72
2022-12-13T10:06:45.374Z,6.88
2022-12-13T10:09:30.579Z,6.78
2022-12-13T10:12:16.782Z,7.03
2022-12-13T10:15:03.128Z,7.07
2022-12-13T10:17:55.539Z,6.05
2022-12-13T10:20:41.814Z,7.50
2022-12-13T10:23:47.035Z,6.93
2022-12-13T10:26:38.096Z,3.50
2022-12-13T10:29:23.266Z,7.03
2022-12-13T10:32:13.314Z,7.38
2022-12-13T10:34:58.502Z,8.32
2022-12-13T10:37:43.706Z,7.10
2022-12-13T10:40:40.907Z,6.65
2022-12-13T10:43:28.061Z,6.57
2022-12-13T10:46:24.982Z,7.70
2022-12-13T10:49:19.687Z,8.07
2022-12-13T10:52:05.473Z,7.65
2022-12-13T10:54:50.836Z,6.53
2022-12-13T10:57:36.028Z,8.27
2022-12-13T11:00:44.654Z,7.80
2022-12-13T11:03:33.386Z,8.45
2022-12-13T11:06:18.519Z,7.43
2022-12-13T11:09:22.669Z,8.73
2022-12-13T11:12:15.037Z,8.10
2022-12-13T11:15:04.211Z,7.65
2022-12-13T11:18:01.507Z,5.93
2022-12-13T11:21:00.202Z,8.45
2022-12-13T11:23:46.159Z,7.80
2022-12-13T11:26:35.173Z,7.70
2022-12-13T11:29:43.337Z,8.05
2022-12-13T11:32:49.440Z,7.05
2022-12-13T11:35:55.889Z,7.15
2022-12-13T11:39:00.329Z,5.00
2022-12-13T11:41:57.447Z,6.67
2022-12-13T11:45:00.493Z,6.95
2022-12-13T11:47:58.483Z,6.43
2022-12-13T11:50:47.807Z,5.57
2022-12-13T11:54:00.928Z,5.47
2022-12-13T11:56:47.114Z,4.67
2022-12-13T11:59:42.312Z,4.10
2022-12-13T12:02:35.193Z,6.10
2022-12-13T12:05:30.291Z,2.33
2022-12-13T12:08:32.311Z,4.07
2022-12-13T12:11:25.147Z,2.40
2022-12-13T12:14:19.883Z,3.00
2022-12-13T12:17:06.934Z,4.15
2022-12-13T12:19:55.887Z,5.82
2022-12-13T12:22:48.781Z,2.20
2022-12-13T12:26:14.595Z,4.37
2022-12-13T12:29:24.910Z,3.47
2022-12-13T12:32:47.706Z,3.03
2022-12-13T12:36:11.271Z,1.73
2022-12-13T12:39:03.909Z,4.45
2022-12-13T12:42:18.634Z,4.20
2022-12-13T12:45:54.597Z,4.55
2022-12-13T12:49:01.212Z,5.13
2022-12-13T12:52:04.298Z,3.33
2022-12-13T12:55:06.519Z,5.10
2022-12-13T12:58:28.824Z,4.60
2022-12-13T13:01:43.883Z,4.45
2022-12-13T13:04:35.821Z,4.95
2022-12-13T13:07:26.779Z,5.03
2022-12-13T13:10:15.938Z,5.47
2022-12-13T13:13:12.717Z,4.20
2022-12-13T13:15:57.991Z,5.82
2022-12-13T13:18:52.845Z,5.28
2022-12-13T13:21:43.465Z,5.28
2022-12-13T13:24:30.446Z,5.70
2022-12-13T13:27:15.570Z,5.83
2022-12-13T13:30:22.458Z,6.07
2022-12-13T13:33:46.576Z,5.68
2022-12-13T13:36:41.103Z,5.78
2022-12-13T13:39:28.972Z,5.80
2022-12-13T13:42:13.833Z,5.20
2022-12-13T13:45:22.414Z,6.20
2022-12-13T13:48:36.905Z,5.45
2022-12-13T13:51:49.396Z,5.40
2022-12-13T13:55:08.142Z,4.88
2022-12-13T13:58:27.350Z,5.13
2022-12-13T14:01:31.117Z,5.68
2022-12-13T14:04:51.443Z,5.70
2022-12-13T14:08:01.095Z,5.53
2022-12-13T14:11:07.012Z,2.67
2022-12-13T14:14:21.927Z,4.60
2022-12-13T14:17:48.228Z,4.88
2022-12-13T14:21:00.943Z,5.05
2022-12-13T14:24:23.390Z,5.10
2022-12-13T14:27:39.657Z,5.80
2022-12-13T14:30:28.043Z,4.93
2022-12-13T14:33:20.340Z,3.85
2022-12-13T14:36:05.490Z,4.25
2022-12-13T14:38:59.975Z,5.40
2022-12-13T14:41:50.169Z,4.97
2022-12-13T14:44:41.958Z,2.83
2022-12-13T14:47:27.423Z,3.45
2022-12-13T14:50:17.774Z,2.90
2022-12-13T14:53:03.261Z,3.28
2022-12-13T14:56:28.398Z,2.65
2022-12-13T14:59:14.136Z,4.00
2022-12-13T15:02:04.753Z,3.33
2022-12-13T15:04:53.351Z,3.00
2022-12-13T15:07:41.483Z,3.70
2022-12-13T15:10:37.410Z,5.25
2022-12-13T15:13:40.743Z,1.83
2022-12-13T15:16:28.960Z,4.38
2022-12-13T15:19:31.343Z,3.35
2022-12-13T15:22:19.098Z,3.67
2022-12-13T15:25:04.516Z,4.32
2022-12-13T15:27:52.174Z,4.50
2022-12-13T15:30:38.362Z,4.22
2022-12-13T15:33:33.588Z,4.70
2022-12-13T15:36:23.906Z,2.65
2022-12-13T15:39:15.221Z,4.03
2022-12-13T15:42:03.463Z,2.23
2022-12-13T15:44:53.873Z,2.42
2022-12-13T15:47:45.217Z,4.75
2022-12-13T15:50:43.849Z,2.40
2022-12-13T15:53:32.558Z,5.13
2022-12-13T15:56:41.229Z,3.13
2022-12-13T15:59:32.178Z,3.90
2022-12-13T16:02:24.212Z,2.25
2022-12-13T16:05:18.512Z,2.85
2022-12-13T16:08:24.455Z,3.53
2022-12-13T16:11:09.667Z,3.70
2022-12-13T16:13:58.566Z,1.65
2022-12-13T16:16:43.734Z,2.30
2022-12-13T16:19:28.635Z,3.30
2022-12-13T16:22:13.831Z,2.35
2022-12-13T16:24:59.488Z,2.97
2022-12-13T16:27:47.108Z,3.85
2022-12-13T16:30:54.343Z,4.15
2022-12-13T16:33:39.194Z,4.40
2022-12-13T16:36:24.402Z,4.00
2022-12-13T16:39:11.087Z,3.93
2022-12-13T16:41:56.417Z,3.03
2022-12-13T16:44:41.695Z,4.20
2022-12-13T16:47:40.387Z,4.43
2022-12-13T16:50:31.738Z,5.07
2022-12-13T16:53:17.954Z,4.80
2022-12-13T16:56:02.849Z,3.70
2022-12-13T16:58:50.358Z,4.45
2022-12-13T17:01:35.862Z,4.07
2022-12-13T17:04:23.328Z,4.10
2022-12-13T17:07:08.812Z,4.57
2022-12-13T17:09:53.613Z,4.70
2022-12-13T17:12:38.673Z,2.72
2022-12-13T17:15:23.559Z,3.63
2022-12-13T17:18:08.621Z,5.00
2022-12-13T17:20:58.783Z,5.20
2022-12-13T17:23:43.955Z,4.22
2022-12-13T17:26:29.376Z,5.60
2022-12-13T17:29:17.708Z,5.47
2022-12-13T17:32:04.547Z,4.32
2022-12-13T17:34:50.848Z,5.20
2022-12-13T17:37:35.783Z,4.70
2022-12-13T17:40:20.901Z,4.35
2022-12-13T17:43:06.281Z,4.78
2022-12-13T17:45:56.339Z,5.10
2022-12-13T17:48:42.254Z,4.20
2022-12-13T17:51:27.409Z,4.68
2022-12-13T17:54:12.621Z,5.43
2022-12-13T17:56:57.735Z,5.32
2022-12-13T17:59:44.223Z,4.95
2022-12-13T18:02:29.358Z,3.20
2022-12-13T18:05:17.883Z,5.28
2022-12-13T18:08:03.196Z,5.53
2022-12-13T18:11:23.422Z,4.65
2022-12-13T18:14:05.455Z,4.45
2022-12-13T18:16:50.831Z,4.37
2022-12-13T18:19:35.987Z,3.10
2022-12-13T18:22:21.168Z,4.43
2022-12-13T18:25:06.478Z,5.60
2022-12-13T18:27:53.869Z,4.20
2022-12-13T18:30:42.951Z,4.13
2022-12-13T18:33:28.546Z,2.65
2022-12-13T18:36:14.018Z,2.40
2022-12-13T18:38:59.122Z,4.20
2022-12-13T18:41:44.408Z,3.75
2022-12-13T18:44:29.650Z,4.93
2022-12-13T18:47:20.826Z,2.67
2022-12-13T18:50:06.467Z,3.53
2022-12-13T18:52:51.442Z,2.95
2022-12-13T18:55:36.242Z,3.25
2022-12-13T18:58:21.383Z,4.87
2022-12-13T19:01:09.537Z,2.53
2022-12-13T19:03:54.813Z,4.30
2022-12-13T19:06:39.850Z,3.28
2022-12-13T19:09:24.958Z,2.10
2022-12-13T19:12:10.002Z,4.57
2022-12-13T19:14:55.323Z,4.30
2022-12-13T19:17:40.093Z,4.20
2022-12-13T19:20:25.294Z,3.25
2022-12-13T19:23:10.369Z,2.42
2022-12-13T19:25:55.540Z,4.10
2022-12-13T19:28:42.001Z,2.72
2022-12-13T19:31:31.886Z,4.95
2022-12-13T19:34:17.385Z,3.72
2022-12-13T19:37:06.305Z,1.67
2022-12-13T19:39:51.437Z,2.73
2022-12-13T19:42:36.496Z,4.25
2022-12-13T19:45:21.725Z,1.20
2022-12-13T19:48:06.402Z,2.97
2022-12-13T19:50:51.570Z,5.03
2022-12-13T19:53:38.395Z,2.40
2022-12-13T19:56:23.378Z,1.55
2022-12-13T19:59:08.558Z,4.55
2022-12-13T20:01:53.670Z,3.30
2022-12-13T20:04:38.469Z,3.47
2022-12-13T20:07:26.435Z,4.07
2022-12-13T20:10:12.173Z,3.63
2022-12-13T20:12:57.234Z,5.00
2022-12-13T20:15:47.103Z,2.65
2022-12-13T20:18:33.509Z,2.03
2022-12-13T20:21:19.496Z,3.30
2022-12-13T20:24:04.903Z,4.82
2022-12-13T20:26:50.003Z,3.72
2022-12-13T20:29:36.637Z,3.78
2022-12-13T20:32:21.822Z,3.83
2022-12-13T20:35:07.216Z,1.93
2022-12-13T20:37:52.964Z,1.75
2022-12-13T20:40:38.254Z,3.80
2022-12-13T20:43:23.550Z,3.72
2022-12-13T20:46:11.487Z,3.63
2022-12-13T20:48:58.359Z,2.60
2022-12-13T20:51:43.270Z,3.67
2022-12-13T20:54:28.565Z,2.60
2022-12-13T20:57:13.803Z,3.65
2022-12-13T20:59:58.747Z,1.85
2022-12-13T21:02:44.474Z,3.57
2022-12-13T21:05:29.266Z,4.07
2022-12-13T21:08:34.185Z,4.18
2022-12-13T21:11:26.333Z,2.75
2022-12-13T21:14:21.766Z,3.63
2022-12-13T21:17:10.481Z,2.53
2022-12-13T21:19:55.319Z,3.10
2022-12-13T21:22:40.140Z,2.80
2022-12-13T21:25:25.342Z,3.10
2022-12-13T21:28:10.370Z,2.92
2022-12-13T21:31:00.027Z,1.97
2022-12-13T21:33:45.173Z,2.65
2022-12-13T21:36:32.629Z,2.10
2022-12-13T21:39:22.461Z,3.13
2022-12-13T21:42:07.627Z,2.22
2022-12-13T21:44:55.416Z,2.40
2022-12-13T21:47:42.390Z,1.85
2022-12-13T21:50:27.664Z,3.03
2022-12-13T21:53:12.834Z,2.67
2022-12-13T21:56:16.971Z,1.40
2022-12-13T21:59:17.021Z,2.10
2022-12-13T22:02:20.217Z,2.33
2022-12-13T22:05:05.875Z,2.53
2022-12-13T22:07:50.952Z,1.90
2022-12-13T22:10:55.700Z,0.80
2022-12-13T22:13:40.551Z,1.77
2022-12-13T22:16:25.686Z,2.53
2022-12-13T22:19:14.451Z,2.47
2022-12-13T22:21:59.476Z,1.52
2022-12-13T22:24:49.894Z,3.25
2022-12-13T22:27:37.962Z,0.90
2022-12-13T22:30:23.158Z,0.88
2022-12-13T22:33:08.777Z,2.55
2022-12-13T22:35:54.014Z,2.60
2022-12-13T22:38:38.939Z,1.95
2022-12-13T22:41:24.115Z,2.63
2022-12-13T22:44:11.275Z,1.75
2022-12-13T22:46:56.557Z,1.65
2022-12-13T22:49:41.375Z,0.90
2022-12-13T22:52:31.914Z,1.88
2022-12-13T22:55:18.829Z,2.73
2022-12-13T22:58:03.903Z,2.08
2022-12-13T23:00:49.250Z,1.90
2022-12-13T23:03:35.764Z,2.25
2022-12-13T23:06:23.336Z,2.45
2022-12-13T23:09:11.562Z,2.20
2022-12-13T23:12:15.601Z,2.20
2022-12-13T23:15:00.896Z,2.92
2022-12-13T23:17:45.658Z,1.95
2022-12-13T23:20:33.591Z,1.52
2022-12-13T23:23:18.731Z,1.23
2022-12-13T23:26:21.166Z,2.30
2022-12-13T23:29:08.326Z,2.50
2022-12-13T23:31:53.410Z,3.10
2022-12-13T23:34:38.334Z,1.52
2022-12-13T23:37:23.715Z,1.53
2022-12-13T23:40:09.334Z,3.22
2022-12-13T23:42:54.504Z,1.85
2022-12-13T23:45:39.790Z,3.13
2022-12-13T23:48:27.014Z,0.82
2022-12-13T23:51:14.626Z,1.73
2022-12-13T23:53:59.940Z,1.80
2022-12-13T23:56:44.963Z,2.38
2022-12-13T23:59:30.339Z,1.65
